sensor_id;sensor_type;location;lat;lon;timestamp;pressure;altitude;pressure_sealevel;temperature;humidity
61963;BME280;47927;42.646;23.096;2022-12-26T00:00:32;92949.66;;;4.59;58.15
61963;BME280;47927;42.646;23.096;2022-12-26T00:02:58;92962.38;;;4.29;59.09
61963;BME280;47927;42.646;23.096;2022-12-26T00:05:23;92957.09;;;3.94;60.47
61963;BME280;47927;42.646;23.096;2022-12-26T00:07:49;92957.78;;;4.17;59.94
61963;BME280;47927;42.646;23.096;2022-12-26T00:10:14;92961.28;;;4.21;59.26
61963;BME280;47927;42.646;23.096;2022-12-26T00:12:40;92965.09;;;4.32;59.27
61963;BME280;47927;42.646;23.096;2022-12-26T00:15:06;92955.84;;;4.40;58.67
61963;BME280;47927;42.646;23.096;2022-12-26T00:17:33;92957.25;;;4.64;57.93
61963;BME280;47927;42.646;23.096;2022-12-26T00:19:59;92960.59;;;4.82;56.79
61963;BME280;47927;42.646;23.096;2022-12-26T00:22:24;92966.38;;;4.96;56.54
61963;BME280;47927;42.646;23.096;2022-12-26T00:24:50;92955.59;;;4.76;56.54
61963;BME280;47927;42.646;23.096;2022-12-26T00:27:15;92972.47;;;4.74;56.80
61963;BME280;47927;42.646;23.096;2022-12-26T00:29:41;92975.09;;;4.34;58.25
61963;BME280;47927;42.646;23.096;2022-12-26T00:32:06;92978.69;;;4.16;58.96
61963;BME280;47927;42.646;23.096;2022-12-26T00:34:32;92980.66;;;4.10;59.08
61963;BME280;47927;42.646;23.096;2022-12-26T00:36:57;92972.50;;;4.17;59.23
61963;BME280;47927;42.646;23.096;2022-12-26T00:39:24;92970.25;;;4.32;58.88
61963;BME280;47927;42.646;23.096;2022-12-26T00:41:50;92981.03;;;4.34;58.82
61963;BME280;47927;42.646;23.096;2022-12-26T00:44:15;92979.91;;;4.09;59.50
61963;BME280;47927;42.646;23.096;2022-12-26T00:46:41;92982.25;;;4.46;58.74
61963;BME280;47927;42.646;23.096;2022-12-26T00:49:06;92977.91;;;4.64;57.81
61963;BME280;47927;42.646;23.096;2022-12-26T00:51:32;92989.31;;;4.89;56.92
61963;BME280;47927;42.646;23.096;2022-12-26T00:53:58;92982.81;;;4.91;55.19
61963;BME280;47927;42.646;23.096;2022-12-26T00:56:23;92981.44;;;4.85;55.41
61963;BME280;47927;42.646;23.096;2022-12-26T00:58:49;92980.22;;;4.91;55.04
61963;BME280;47927;42.646;23.096;2022-12-26T01:01:20;92978.25;;;4.88;54.94
61963;BME280;47927;42.646;23.096;2022-12-26T01:03:46;92984.63;;;4.82;54.75
61963;BME280;47927;42.646;23.096;2022-12-26T01:06:12;92983.09;;;4.81;55.16
61963;BME280;47927;42.646;23.096;2022-12-26T01:08:38;92969.38;;;4.54;55.25
61963;BME280;47927;42.646;23.096;2022-12-26T01:11:08;92992.31;;;4.56;55.89
61963;BME280;47927;42.646;23.096;2022-12-26T01:13:35;92996.09;;;4.41;56.19
61963;BME280;47927;42.646;23.096;2022-12-26T01:16:01;92987.22;;;4.25;56.44
61963;BME280;47927;42.646;23.096;2022-12-26T01:18:27;93002.88;;;4.37;56.61
61963;BME280;47927;42.646;23.096;2022-12-26T01:20:58;93002.19;;;4.54;55.50
61963;BME280;47927;42.646;23.096;2022-12-26T01:23:24;93006.25;;;4.38;55.73
61963;BME280;47927;42.646;23.096;2022-12-26T01:25:49;93003.94;;;4.27;56.35
61963;BME280;47927;42.646;23.096;2022-12-26T01:28:15;92994.75;;;4.52;55.42
61963;BME280;47927;42.646;23.096;2022-12-26T01:30:41;93000.69;;;4.62;54.56
61963;BME280;47927;42.646;23.096;2022-12-26T01:33:07;92989.13;;;4.59;54.42
61963;BME280;47927;42.646;23.096;2022-12-26T01:35:32;92989.72;;;4.47;55.04
61963;BME280;47927;42.646;23.096;2022-12-26T01:38:01;92997.84;;;4.23;55.76
61963;BME280;47927;42.646;23.096;2022-12-26T01:40:26;92996.94;;;3.88;57.51
61963;BME280;47927;42.646;23.096;2022-12-26T01:42:52;92998.50;;;3.98;57.36
61963;BME280;47927;42.646;23.096;2022-12-26T01:45:30;92987.53;;;4.23;56.43
61963;BME280;47927;42.646;23.096;2022-12-26T01:48:04;92982.00;;;4.07;55.76
61963;BME280;47927;42.646;23.096;2022-12-26T01:50:58;92991.47;;;3.89;57.19
61963;BME280;47927;42.646;23.096;2022-12-26T01:53:30;92982.75;;;3.99;57.54
61963;BME280;47927;42.646;23.096;2022-12-26T01:56:06;92987.72;;;3.87;58.14
61963;BME280;47927;42.646;23.096;2022-12-26T01:58:38;92977.63;;;4.08;56.96
61963;BME280;47927;42.646;23.096;2022-12-26T02:01:06;92975.25;;;4.20;56.56
61963;BME280;47927;42.646;23.096;2022-12-26T02:03:35;92968.88;;;4.26;55.38
61963;BME280;47927;42.646;23.096;2022-12-26T02:06:21;92973.41;;;4.21;56.18
61963;BME280;47927;42.646;23.096;2022-12-26T02:08:47;92976.75;;;4.21;56.58
61963;BME280;47927;42.646;23.096;2022-12-26T02:11:23;92959.84;;;4.06;56.90
61963;BME280;47927;42.646;23.096;2022-12-26T02:13:50;92961.03;;;3.92;57.66
61963;BME280;47927;42.646;23.096;2022-12-26T02:16:17;92974.38;;;3.94;57.92
61963;BME280;47927;42.646;23.096;2022-12-26T02:18:43;92968.69;;;3.74;58.74
61963;BME280;47927;42.646;23.096;2022-12-26T02:23:53;92977.66;;;4.17;57.50
61963;BME280;47927;42.646;23.096;2022-12-26T02:34:37;92956.19;;;3.59;59.81
61963;BME280;47927;42.646;23.096;2022-12-26T02:40:08;92970.59;;;3.60;59.57
61963;BME280;47927;42.646;23.096;2022-12-26T02:45:56;92957.03;;;4.17;58.40
61963;BME280;47927;42.646;23.096;2022-12-26T02:49:09;92958.59;;;4.35;58.05
61963;BME280;47927;42.646;23.096;2022-12-26T02:51:48;92962.47;;;4.15;58.30
61963;BME280;47927;42.646;23.096;2022-12-26T02:55:00;92957.19;;;4.20;58.10
61963;BME280;47927;42.646;23.096;2022-12-26T02:58:29;92953.13;;;4.45;55.18
61963;BME280;47927;42.646;23.096;2022-12-26T03:01:16;92953.56;;;4.30;54.55
61963;BME280;47927;42.646;23.096;2022-12-26T03:04:03;92953.25;;;4.23;55.68
61963;BME280;47927;42.646;23.096;2022-12-26T03:06:55;92957.81;;;4.26;56.93
61963;BME280;47927;42.646;23.096;2022-12-26T03:09:43;92944.91;;;4.26;56.67
61963;BME280;47927;42.646;23.096;2022-12-26T03:12:37;92957.84;;;4.43;55.63
61963;BME280;47927;42.646;23.096;2022-12-26T03:15:23;92958.84;;;4.25;55.42
61963;BME280;47927;42.646;23.096;2022-12-26T03:17:57;92954.75;;;4.24;56.85
61963;BME280;47927;42.646;23.096;2022-12-26T03:20:28;92960.53;;;4.21;56.90
61963;BME280;47927;42.646;23.096;2022-12-26T03:23:02;92961.13;;;4.18;57.54
61963;BME280;47927;42.646;23.096;2022-12-26T03:28:23;92943.69;;;4.23;57.02
61963;BME280;47927;42.646;23.096;2022-12-26T03:30:49;92967.56;;;4.46;56.59
61963;BME280;47927;42.646;23.096;2022-12-26T03:33:19;92967.41;;;4.51;56.13
61963;BME280;47927;42.646;23.096;2022-12-26T03:36:07;92978.78;;;4.42;56.42
61963;BME280;47927;42.646;23.096;2022-12-26T03:41:55;92965.25;;;4.36;55.17
61963;BME280;47927;42.646;23.096;2022-12-26T03:44:59;92974.31;;;4.25;55.15
61963;BME280;47927;42.646;23.096;2022-12-26T03:48:05;92971.44;;;4.18;55.03
61963;BME280;47927;42.646;23.096;2022-12-26T03:50:58;92978.25;;;4.14;55.00
61963;BME280;47927;42.646;23.096;2022-12-26T03:53:55;92981.56;;;3.74;56.31
61963;BME280;47927;42.646;23.096;2022-12-26T03:56:52;92964.88;;;3.72;57.22
61963;BME280;47927;42.646;23.096;2022-12-26T03:59:50;92969.59;;;3.70;57.54
61963;BME280;47927;42.646;23.096;2022-12-26T04:02:42;92979.19;;;3.86;57.73
61963;BME280;47927;42.646;23.096;2022-12-26T04:05:28;92979.66;;;3.88;56.65
61963;BME280;47927;42.646;23.096;2022-12-26T04:08:17;92980.34;;;3.72;56.90
61963;BME280;47927;42.646;23.096;2022-12-26T04:11:05;92984.91;;;3.75;56.22
61963;BME280;47927;42.646;23.096;2022-12-26T04:17:21;92982.66;;;3.82;55.77
61963;BME280;47927;42.646;23.096;2022-12-26T04:20:28;92973.84;;;3.74;55.85
61963;BME280;47927;42.646;23.096;2022-12-26T04:22:59;92983.84;;;3.76;56.40
61963;BME280;47927;42.646;23.096;2022-12-26T04:25:56;92980.25;;;3.85;55.83
61963;BME280;47927;42.646;23.096;2022-12-26T04:28:41;92986.75;;;3.83;55.73
61963;BME280;47927;42.646;23.096;2022-12-26T04:31:32;92988.31;;;3.84;55.59
61963;BME280;47927;42.646;23.096;2022-12-26T04:34:23;92985.84;;;3.79;54.97
61963;BME280;47927;42.646;23.096;2022-12-26T04:37:18;92985.16;;;3.64;55.40
61963;BME280;47927;42.646;23.096;2022-12-26T04:40:07;92988.81;;;3.41;56.81
61963;BME280;47927;42.646;23.096;2022-12-26T04:42:55;92981.66;;;3.38;56.73
61963;BME280;47927;42.646;23.096;2022-12-26T04:45:40;92984.47;;;3.50;56.92
61963;BME280;47927;42.646;23.096;2022-12-26T04:48:06;92987.63;;;3.47;56.93
61963;BME280;47927;42.646;23.096;2022-12-26T04:50:51;92986.53;;;3.39;56.11
61963;BME280;47927;42.646;23.096;2022-12-26T04:53:18;92987.53;;;3.52;55.86
61963;BME280;47927;42.646;23.096;2022-12-26T04:55:44;92984.63;;;3.54;56.07
61963;BME280;47927;42.646;23.096;2022-12-26T04:58:10;92975.13;;;3.54;56.49
61963;BME280;47927;42.646;23.096;2022-12-26T05:00:35;92989.41;;;3.15;56.68
61963;BME280;47927;42.646;23.096;2022-12-26T05:03:01;92983.44;;;3.29;55.89
61963;BME280;47927;42.646;23.096;2022-12-26T05:05:47;92994.53;;;2.93;58.17
61963;BME280;47927;42.646;23.096;2022-12-26T05:08:44;92990.63;;;3.18;58.56
61963;BME280;47927;42.646;23.096;2022-12-26T05:11:45;92994.25;;;2.94;59.90
61963;BME280;47927;42.646;23.096;2022-12-26T05:14:11;92995.72;;;3.09;59.60
61963;BME280;47927;42.646;23.096;2022-12-26T05:16:37;92997.31;;;3.19;59.58
61963;BME280;47927;42.646;23.096;2022-12-26T05:19:20;93006.38;;;3.39;59.02
61963;BME280;47927;42.646;23.096;2022-12-26T05:22:04;93011.25;;;3.63;57.52
61963;BME280;47927;42.646;23.096;2022-12-26T05:24:49;93014.84;;;3.62;57.98
61963;BME280;47927;42.646;23.096;2022-12-26T05:27:38;93008.91;;;3.84;57.08
61963;BME280;47927;42.646;23.096;2022-12-26T05:30:23;93017.25;;;3.89;56.79
61963;BME280;47927;42.646;23.096;2022-12-26T05:32:49;93015.16;;;3.92;56.25
61963;BME280;47927;42.646;23.096;2022-12-26T05:35:34;93018.03;;;3.90;56.83
61963;BME280;47927;42.646;23.096;2022-12-26T05:38:01;93022.56;;;3.62;57.54
61963;BME280;47927;42.646;23.096;2022-12-26T05:40:26;93015.50;;;3.68;57.97
61963;BME280;47927;42.646;23.096;2022-12-26T05:42:52;93027.41;;;3.86;56.16
61963;BME280;47927;42.646;23.096;2022-12-26T05:45:18;93029.13;;;3.91;56.17
61963;BME280;47927;42.646;23.096;2022-12-26T05:47:44;93030.47;;;3.65;56.80
61963;BME280;47927;42.646;23.096;2022-12-26T05:50:10;93014.91;;;3.71;57.05
61963;BME280;47927;42.646;23.096;2022-12-26T05:52:36;93029.34;;;3.80;56.63
61963;BME280;47927;42.646;23.096;2022-12-26T05:55:02;93030.72;;;3.78;56.59
61963;BME280;47927;42.646;23.096;2022-12-26T05:57:28;93024.41;;;3.61;56.66
61963;BME280;47927;42.646;23.096;2022-12-26T05:59:53;93023.88;;;3.51;57.17
61963;BME280;47927;42.646;23.096;2022-12-26T06:02:19;93023.38;;;3.71;56.51
61963;BME280;47927;42.646;23.096;2022-12-26T06:04:44;93023.00;;;3.55;57.09
61963;BME280;47927;42.646;23.096;2022-12-26T06:07:10;93025.19;;;3.39;58.10
61963;BME280;47927;42.646;23.096;2022-12-26T06:09:35;93022.88;;;3.60;57.78
61963;BME280;47927;42.646;23.096;2022-12-26T06:12:01;93028.94;;;3.87;57.48
61963;BME280;47927;42.646;23.096;2022-12-26T06:14:26;93025.41;;;4.05;56.82
61963;BME280;47927;42.646;23.096;2022-12-26T06:16:52;93016.50;;;3.89;57.16
61963;BME280;47927;42.646;23.096;2022-12-26T06:19:17;93024.44;;;4.01;57.21
61963;BME280;47927;42.646;23.096;2022-12-26T06:21:43;93018.09;;;4.07;57.08
61963;BME280;47927;42.646;23.096;2022-12-26T06:24:09;93030.44;;;4.19;57.22
61963;BME280;47927;42.646;23.096;2022-12-26T06:26:35;93021.44;;;3.99;57.27
61963;BME280;47927;42.646;23.096;2022-12-26T06:29:00;93028.22;;;3.95;58.34
61963;BME280;47927;42.646;23.096;2022-12-26T06:31:26;93033.94;;;5.76;56.24
61963;BME280;47927;42.646;23.096;2022-12-26T06:33:56;93028.50;;;7.35;52.11
61963;BME280;47927;42.646;23.096;2022-12-26T06:36:27;93036.28;;;8.83;48.35
61963;BME280;47927;42.646;23.096;2022-12-26T06:38:54;93036.34;;;10.24;45.50
61963;BME280;47927;42.646;23.096;2022-12-26T06:41:22;93025.94;;;11.61;42.23
61963;BME280;47927;42.646;23.096;2022-12-26T06:43:49;93026.84;;;12.81;38.56
61963;BME280;47927;42.646;23.096;2022-12-26T06:46:18;93027.50;;;13.91;37.65
61963;BME280;47927;42.646;23.096;2022-12-26T06:48:44;93032.44;;;14.81;35.31
61963;BME280;47927;42.646;23.096;2022-12-26T06:51:16;93025.50;;;15.84;33.53
61963;BME280;47927;42.646;23.096;2022-12-26T06:53:43;93027.16;;;16.89;32.20
61963;BME280;47927;42.646;23.096;2022-12-26T06:56:11;93034.28;;;16.92;31.17
61963;BME280;47927;42.646;23.096;2022-12-26T06:58:38;93032.63;;;17.66;30.39
61963;BME280;47927;42.646;23.096;2022-12-26T07:01:09;93037.44;;;18.55;29.99
61963;BME280;47927;42.646;23.096;2022-12-26T07:03:35;93045.97;;;19.26;28.73
61963;BME280;47927;42.646;23.096;2022-12-26T07:06:22;93046.31;;;19.66;26.79
61963;BME280;47927;42.646;23.096;2022-12-26T07:08:49;93052.63;;;20.10;27.22
61963;BME280;47927;42.646;23.096;2022-12-26T07:11:17;93044.78;;;20.60;26.54
61963;BME280;47927;42.646;23.096;2022-12-26T07:13:44;93047.31;;;21.14;26.26
61963;BME280;47927;42.646;23.096;2022-12-26T07:16:11;93047.91;;;21.26;25.73
61963;BME280;47927;42.646;23.096;2022-12-26T07:18:38;93055.88;;;21.69;25.37
61963;BME280;47927;42.646;23.096;2022-12-26T07:21:08;93057.91;;;21.81;24.65
61963;BME280;47927;42.646;23.096;2022-12-26T07:23:35;93055.25;;;21.81;23.66
61963;BME280;47927;42.646;23.096;2022-12-26T07:26:00;93059.81;;;22.21;24.18
61963;BME280;47927;42.646;23.096;2022-12-26T07:28:27;93059.91;;;22.34;23.67
61963;BME280;47927;42.646;23.096;2022-12-26T07:30:53;93061.22;;;21.85;23.82
61963;BME280;47927;42.646;23.096;2022-12-26T07:33:19;93061.38;;;21.98;23.77
61963;BME280;47927;42.646;23.096;2022-12-26T07:35:45;93048.56;;;22.13;23.69
61963;BME280;47927;42.646;23.096;2022-12-26T07:38:11;93061.69;;;22.00;23.88
61963;BME280;47927;42.646;23.096;2022-12-26T07:40:37;93062.88;;;21.99;24.17
61963;BME280;47927;42.646;23.096;2022-12-26T07:43:02;93064.78;;;22.19;23.84
61963;BME280;47927;42.646;23.096;2022-12-26T07:45:28;93066.94;;;22.60;23.29
61963;BME280;47927;42.646;23.096;2022-12-26T07:47:56;93075.75;;;22.73;23.07
61963;BME280;47927;42.646;23.096;2022-12-26T07:50:23;93047.44;;;21.54;23.84
61963;BME280;47927;42.646;23.096;2022-12-26T07:52:50;93069.50;;;21.24;25.29
61963;BME280;47927;42.646;23.096;2022-12-26T07:55:17;93073.41;;;21.63;24.70
61963;BME280;47927;42.646;23.096;2022-12-26T07:57:43;93072.34;;;21.80;24.65
61963;BME280;47927;42.646;23.096;2022-12-26T08:00:09;93071.59;;;21.13;24.54
61963;BME280;47927;42.646;23.096;2022-12-26T08:02:38;93073.66;;;21.02;25.00
61963;BME280;47927;42.646;23.096;2022-12-26T08:05:04;93078.94;;;20.20;25.91
61963;BME280;47927;42.646;23.096;2022-12-26T08:07:29;93083.53;;;20.74;25.79
61963;BME280;47927;42.646;23.096;2022-12-26T08:09:55;93069.84;;;20.79;25.45
61963;BME280;47927;42.646;23.096;2022-12-26T08:12:20;93068.75;;;20.77;26.24
61963;BME280;47927;42.646;23.096;2022-12-26T08:14:49;93066.56;;;21.66;25.04
61963;BME280;47927;42.646;23.096;2022-12-26T08:17:15;93070.03;;;22.22;24.01
61963;BME280;47927;42.646;23.096;2022-12-26T08:19:41;93083.31;;;22.39;23.83
61963;BME280;47927;42.646;23.096;2022-12-26T08:22:06;93076.22;;;22.52;24.15
61963;BME280;47927;42.646;23.096;2022-12-26T08:24:32;93084.06;;;22.75;23.47
61963;BME280;47927;42.646;23.096;2022-12-26T08:26:57;93080.06;;;22.67;22.92
61963;BME280;47927;42.646;23.096;2022-12-26T08:29:23;93088.81;;;23.01;22.64
61963;BME280;47927;42.646;23.096;2022-12-26T08:31:48;93082.81;;;23.46;21.83
61963;BME280;47927;42.646;23.096;2022-12-26T08:34:14;93079.41;;;23.29;22.11
61963;BME280;47927;42.646;23.096;2022-12-26T08:36:39;93079.41;;;22.80;23.01
61963;BME280;47927;42.646;23.096;2022-12-26T08:39:05;93076.13;;;21.99;23.86
61963;BME280;47927;42.646;23.096;2022-12-26T08:41:31;93082.34;;;21.93;24.05
61963;BME280;47927;42.646;23.096;2022-12-26T08:43:57;93069.34;;;22.18;24.05
61963;BME280;47927;42.646;23.096;2022-12-26T08:46:23;93064.13;;;22.84;23.18
61963;BME280;47927;42.646;23.096;2022-12-26T08:48:50;93067.56;;;22.12;23.85
61963;BME280;47927;42.646;23.096;2022-12-26T08:51:21;93068.94;;;21.13;25.40
61963;BME280;47927;42.646;23.096;2022-12-26T08:53:48;93068.53;;;19.72;27.79
61963;BME280;47927;42.646;23.096;2022-12-26T08:56:20;93071.84;;;19.42;28.07
61963;BME280;47927;42.646;23.096;2022-12-26T08:58:46;93064.56;;;19.53;28.06
61963;BME280;47927;42.646;23.096;2022-12-26T09:01:14;93072.13;;;20.23;27.41
61963;BME280;47927;42.646;23.096;2022-12-26T09:03:40;93047.97;;;20.99;25.89
61963;BME280;47927;42.646;23.096;2022-12-26T09:06:06;93037.72;;;21.01;24.90
61963;BME280;47927;42.646;23.096;2022-12-26T09:08:32;93055.00;;;20.85;25.22
61963;BME280;47927;42.646;23.096;2022-12-26T09:11:07;93059.41;;;21.63;24.27
61963;BME280;47927;42.646;23.096;2022-12-26T09:13:35;93051.66;;;21.72;23.88
61963;BME280;47927;42.646;23.096;2022-12-26T09:16:09;93049.06;;;21.68;23.53
61963;BME280;47927;42.646;23.096;2022-12-26T09:18:35;93053.59;;;20.23;24.74
61963;BME280;47927;42.646;23.096;2022-12-26T09:21:02;93055.63;;;19.81;25.08
61963;BME280;47927;42.646;23.096;2022-12-26T09:23:28;93052.84;;;19.54;24.39
